createdAt,value
2018-08-16T00:04:39.134Z,22.4
2018-08-16T00:09:34.913Z,22.3
2018-08-16T00:14:30.756Z,22.3
2018-08-16T00:19:26.477Z,23
2018-08-16T00:24:22.306Z,22.9
2018-08-16T00:29:17.971Z,22.6
2018-08-16T00:34:13.643Z,22.1
2018-08-16T00:39:09.293Z,22
2018-08-16T00:44:04.847Z,22.8
2018-08-16T00:49:00.888Z,22.7
2018-08-16T00:53:56.721Z,21.9
2018-08-16T00:58:52.443Z,22.6
2018-08-16T01:03:48.185Z,22.6
2018-08-16T01:08:43.992Z,21.8
2018-08-16T01:13:39.919Z,21.7
2018-08-16T01:18:35.862Z,21.6
2018-08-16T01:23:31.417Z,22.4
2018-08-16T01:28:27.081Z,22.4
2018-08-16T01:33:22.789Z,21.7
2018-08-16T01:38:18.727Z,21.6
2018-08-16T01:43:14.471Z,22.4
2018-08-16T01:48:10.297Z,21.6
2018-08-16T01:53:06.019Z,22.3
2018-08-16T01:58:01.862Z,21.5
2018-08-16T02:02:57.124Z,22.2
2018-08-16T02:07:52.855Z,22.2
2018-08-16T02:12:48.539Z,21.4
2018-08-16T02:17:44.284Z,22
2018-08-16T02:22:40.015Z,21.1
2018-08-16T02:27:35.624Z,21.1
2018-08-16T02:32:31.456Z,21.1
2018-08-16T02:37:27.266Z,21.8
2018-08-16T02:42:23.100Z,21
2018-08-16T02:47:18.845Z,21
2018-08-16T02:52:14.619Z,21.7
2018-08-16T02:57:10.420Z,20.9
2018-08-16T03:02:06.228Z,21.6
2018-08-16T03:07:01.607Z,21.5
2018-08-16T03:11:57.323Z,21.5
2018-08-16T03:16:53.023Z,21.5
2018-08-16T03:21:48.936Z,20.6
2018-08-16T03:26:44.849Z,20.6
2018-08-16T03:31:40.724Z,20.6
2018-08-16T03:36:36.251Z,20.6
2018-08-16T03:41:31.823Z,20.5
2018-08-16T03:46:27.507Z,21.2
2018-08-16T03:51:23.215Z,20.3
2018-08-16T03:56:19.015Z,21.1
2018-08-16T04:01:14.735Z,21.1
2018-08-16T04:06:10.326Z,21
2018-08-16T04:11:06.268Z,21
2018-08-16T04:16:02.012Z,21
2018-08-16T04:20:57.856Z,21
2018-08-16T04:25:53.476Z,20.1
2018-08-16T04:30:49.114Z,20.2
2018-08-16T04:35:44.951Z,20.3
2018-08-16T04:40:40.815Z,20.3
2018-08-16T04:45:36.210Z,20.2
2018-08-16T04:50:32.229Z,20.2
2018-08-16T04:55:27.941Z,20.1
2018-08-16T05:00:23.662Z,20.8
2018-08-16T05:05:19.529Z,20.2
2018-08-16T05:10:15.354Z,21
2018-08-16T05:15:11.243Z,20.3
2018-08-16T05:20:06.943Z,21.1
2018-08-16T05:25:02.780Z,21.1
2018-08-16T05:29:58.504Z,21.2
2018-08-16T05:34:54.278Z,21.2
2018-08-16T05:39:50.177Z,20.4
2018-08-16T05:44:45.724Z,21.2
2018-08-16T05:49:41.480Z,20.4
2018-08-16T05:54:37.370Z,20.2
2018-08-16T05:59:33.056Z,20.4
2018-08-16T06:04:28.933Z,20.5
2018-08-16T06:09:24.727Z,20.5
2018-08-16T06:14:20.589Z,20.6
2018-08-16T06:19:16.119Z,21.4
2018-08-16T06:24:12.002Z,20.7
2018-08-16T06:29:08.224Z,20.7
2018-08-16T06:34:03.898Z,21.6
2018-08-16T06:38:59.402Z,20.9
2018-08-16T06:43:55.125Z,20.9
2018-08-16T06:48:50.993Z,21.5
2018-08-16T06:53:46.528Z,21.9
2018-08-16T06:58:42.548Z,21.1
2018-08-16T07:03:38.449Z,21.2
2018-08-16T07:08:34.315Z,21.1
2018-08-16T07:13:29.948Z,21.4
2018-08-16T07:18:25.731Z,21.5
2018-08-16T07:23:21.802Z,22.3
2018-08-16T07:28:17.447Z,21.6
2018-08-16T07:33:13.269Z,21.4
2018-08-16T07:38:09.229Z,21.7
2018-08-16T07:43:05.065Z,22.6
2018-08-16T07:48:00.928Z,21.6
2018-08-16T07:52:56.854Z,22
2018-08-16T07:57:52.632Z,22.1
2018-08-16T08:02:48.596Z,22.1
2018-08-16T08:07:44.311Z,23
2018-08-16T08:12:40.381Z,23.1
2018-08-16T08:17:36.345Z,22.5
2018-08-16T08:22:32.325Z,23.3
2018-08-16T08:27:28.143Z,23.4
2018-08-16T08:32:24.033Z,22.8
2018-08-16T08:37:19.844Z,23.6
2018-08-16T08:42:15.747Z,23
2018-08-16T08:47:11.738Z,23.1
2018-08-16T08:52:07.836Z,23.3
2018-08-16T08:57:03.780Z,23.4
2018-08-16T09:01:59.153Z,24.3
2018-08-16T09:06:55.337Z,23.7
2018-08-16T09:11:51.381Z,23.8
2018-08-16T09:16:47.436Z,24.7
2018-08-16T09:21:43.503Z,24.1
2018-08-16T09:26:39.628Z,24.9
2018-08-16T09:31:35.635Z,25.1
2018-08-16T09:36:31.372Z,25.2
2018-08-16T09:41:27.231Z,25.4
2018-08-16T09:46:23.271Z,25.6
2018-08-16T09:51:19.456Z,25.9
2018-08-16T09:56:15.351Z,26.1
2018-08-16T10:01:11.630Z,26.4
2018-08-16T10:06:07.455Z,26.4
2018-08-16T10:11:03.449Z,26.5
2018-08-16T10:15:59.499Z,26.7
2018-08-16T10:20:55.694Z,26.7
2018-08-16T10:25:51.576Z,26.8
2018-08-16T10:30:47.597Z,27
2018-08-16T10:35:43.516Z,27
2018-08-16T10:40:39.633Z,27
2018-08-16T10:45:35.597Z,27
2018-08-16T10:50:31.366Z,27.1
2018-08-16T10:55:27.310Z,27
2018-08-16T11:00:23.253Z,27.1
2018-08-16T11:05:19.140Z,26.5
2018-08-16T11:10:14.771Z,27.3
2018-08-16T11:15:10.905Z,27.3
2018-08-16T11:20:06.819Z,27.2
2018-08-16T11:25:02.595Z,27.3
2018-08-16T11:29:58.668Z,27.3
2018-08-16T11:34:54.759Z,27.5
2018-08-16T11:39:50.768Z,27.1
2018-08-16T11:44:46.908Z,27.9
2018-08-16T11:49:42.729Z,27.2
2018-08-16T11:54:38.704Z,28.1
2018-08-16T11:59:35.037Z,27.5
2018-08-16T12:04:30.935Z,28
2018-08-16T12:09:26.839Z,27.2
2018-08-16T12:14:22.745Z,28
2018-08-16T12:19:19.076Z,27.3
2018-08-16T12:24:15.159Z,27.8
2018-08-16T12:29:11.107Z,27.7
2018-08-16T12:34:06.952Z,27.8
2018-08-16T12:39:03.025Z,28.1
2018-08-16T12:43:58.977Z,28
2018-08-16T12:48:54.973Z,27.6
2018-08-16T12:53:50.991Z,27.8
2018-08-16T12:58:47.187Z,28.8
2018-08-16T13:03:42.709Z,28.2
2018-08-16T13:08:38.740Z,28.4
2018-08-16T13:13:34.826Z,28.5
2018-08-16T13:18:30.647Z,29.1
2018-08-16T13:23:26.369Z,28.8
2018-08-16T13:28:22.223Z,28
2018-08-16T13:33:17.856Z,27.8
2018-08-16T13:38:13.376Z,28.5
2018-08-16T13:43:09.339Z,27.8
2018-08-16T13:48:05.401Z,28.4
2018-08-16T13:53:01.202Z,28.6
2018-08-16T13:57:57.582Z,29.4
2018-08-16T14:02:53.739Z,29.6
2018-08-16T14:07:49.926Z,28.6
2018-08-16T14:12:45.791Z,28.4
2018-08-16T14:17:41.408Z,28.2
2018-08-16T14:22:37.246Z,28.1
2018-08-16T14:27:33.266Z,28.6
2018-08-16T14:32:29.009Z,27.8
2018-08-16T14:37:24.875Z,27.8
2018-08-16T14:42:20.938Z,27.8
2018-08-16T14:47:16.858Z,28.5
2018-08-16T14:52:12.685Z,27.8
2018-08-16T14:57:08.631Z,28.4
2018-08-16T15:02:04.507Z,27.7
2018-08-16T15:07:00.484Z,27.6
2018-08-16T15:11:56.410Z,28.3
2018-08-16T15:16:52.372Z,28.3
2018-08-16T15:21:48.401Z,28.3
2018-08-16T15:26:44.430Z,28.3
2018-08-16T15:31:40.189Z,28.3
2018-08-16T15:36:36.071Z,27.6
2018-08-16T15:41:32.098Z,28.3
2018-08-16T15:46:28.164Z,28.3
2018-08-16T15:51:24.198Z,28.2
2018-08-16T15:56:19.671Z,28.2
2018-08-16T16:01:15.546Z,27.5
2018-08-16T16:06:11.397Z,28.2
2018-08-16T16:11:07.170Z,28.2
2018-08-16T16:16:02.981Z,27.5
2018-08-16T16:20:58.886Z,27.5
2018-08-16T16:25:54.633Z,27.4
2018-08-16T16:30:50.000Z,27.3
2018-08-16T16:35:45.679Z,27.2
2018-08-16T16:40:41.811Z,27.8
2018-08-16T16:45:37.569Z,27
2018-08-16T16:50:32.955Z,27
2018-08-16T16:55:28.784Z,27.6
2018-08-16T17:00:24.902Z,26.8
2018-08-16T17:05:20.836Z,26.7
2018-08-16T17:10:16.689Z,26.7
2018-08-16T17:20:12.386Z,26.4
2018-08-16T17:25:08.373Z,27
2018-08-16T17:30:04.313Z,26.5
2018-08-16T17:35:00.030Z,26.2
2018-08-16T17:39:55.892Z,25.8
2018-08-16T17:44:51.583Z,26.1
2018-08-16T17:49:47.581Z,26.7
2018-08-16T17:54:43.998Z,26.6
2018-08-16T17:59:40.405Z,25.9
2018-08-16T18:04:36.278Z,26.5
2018-08-16T18:09:31.821Z,26.5
2018-08-16T18:14:27.600Z,26.4
2018-08-16T18:19:23.738Z,26.4
2018-08-16T18:24:19.831Z,25.7
2018-08-16T18:29:16.858Z,25.6
2018-08-16T18:34:16.626Z,25.6
2018-08-16T18:39:11.296Z,26.2
2018-08-16T18:44:07.189Z,25.5
2018-08-16T18:49:03.276Z,26.2
2018-08-16T18:53:59.778Z,24.8
2018-08-16T18:58:55.469Z,26.1
2018-08-16T19:03:51.431Z,25.9
2018-08-16T19:08:47.329Z,26.1
2018-08-16T19:13:43.169Z,26
2018-08-16T19:18:39.298Z,26
2018-08-16T19:23:35.110Z,26
2018-08-16T19:28:30.965Z,25.5
2018-08-16T19:33:26.993Z,25.9
2018-08-16T19:38:22.936Z,25.9
2018-08-16T19:43:19.202Z,25.8
2018-08-16T19:48:15.478Z,25.8
2018-08-16T19:53:11.515Z,25.8
2018-08-16T19:58:07.574Z,25.7
2018-08-16T20:03:06.616Z,25.7
2018-08-16T20:08:01.920Z,25.7
2018-08-16T20:12:57.826Z,25.6
2018-08-16T20:17:53.803Z,25.6
2018-08-16T20:22:49.741Z,25.5
2018-08-16T20:27:45.938Z,25.3
2018-08-16T20:32:41.867Z,25.5
2018-08-16T20:37:37.822Z,25.4
2018-08-16T20:42:35.762Z,25.4
2018-08-16T20:47:31.085Z,25.4
2018-08-16T20:52:31.547Z,25
2018-08-16T20:57:25.868Z,25.3
2018-08-16T21:02:21.770Z,25.3
2018-08-16T21:07:18.063Z,24.4
2018-08-16T21:12:13.850Z,25.1
2018-08-16T21:17:09.885Z,25.1
2018-08-16T21:22:05.827Z,25
2018-08-16T21:27:01.656Z,25
2018-08-16T21:31:57.361Z,24.9
2018-08-16T21:36:53.122Z,24.9
2018-08-16T21:41:48.952Z,24
2018-08-16T21:46:45.038Z,24.7
2018-08-16T21:51:41.790Z,22.4
2018-08-16T21:56:37.365Z,24.7
2018-08-16T22:01:33.337Z,24.7
2018-08-16T22:06:29.141Z,24.6
2018-08-16T22:11:25.242Z,24.5
2018-08-16T22:16:21.276Z,24.2
2018-08-16T22:21:16.965Z,24.4
2018-08-16T22:26:12.996Z,24.4
2018-08-16T22:31:08.569Z,24.3
2018-08-16T22:36:04.769Z,24.2
2018-08-16T22:41:00.693Z,24.1
2018-08-16T22:45:56.495Z,24.1
2018-08-16T22:50:52.463Z,24
2018-08-16T22:55:48.446Z,24
2018-08-16T23:00:44.485Z,23.3
2018-08-16T23:05:40.514Z,24
2018-08-16T23:10:36.551Z,23.2
2018-08-16T23:15:32.365Z,23.2
2018-08-16T23:20:28.267Z,23.9
2018-08-16T23:25:23.979Z,23.9
2018-08-16T23:30:19.962Z,23.1
2018-08-16T23:35:15.749Z,23.8
2018-08-16T23:40:11.442Z,23.7
2018-08-16T23:45:07.374Z,22.9
2018-08-16T23:50:03.668Z,22.8
2018-08-16T23:54:59.510Z,22.7
2018-08-16T23:59:55.867Z,22.7
